sensor_id;sensor_type;location;lat;lon;timestamp;pressure;altitude;pressure_sealevel;temperature;humidity
55538;BME280;41383;51.418;7.286;2023-02-28T00:00:45;101222.16;;;3.28;59.39
55538;BME280;41383;51.418;7.286;2023-02-28T00:03:10;101220.03;;;3.23;59.57
55538;BME280;41383;51.418;7.286;2023-02-28T00:05:36;101216.00;;;3.19;59.69
55538;BME280;41383;51.418;7.286;2023-02-28T00:08:01;101225.06;;;3.03;59.42
55538;BME280;41383;51.418;7.286;2023-02-28T00:10:28;101215.63;;;2.99;60.22
55538;BME280;41383;51.418;7.286;2023-02-28T00:12:58;101224.50;;;3.08;60.71
55538;BME280;41383;51.418;7.286;2023-02-28T00:15:24;101228.88;;;3.09;59.74
55538;BME280;41383;51.418;7.286;2023-02-28T00:17:50;101223.59;;;3.15;60.19
55538;BME280;41383;51.418;7.286;2023-02-28T00:20:16;101221.31;;;3.04;59.83
55538;BME280;41383;51.418;7.286;2023-02-28T00:22:43;101218.56;;;3.12;59.94
55538;BME280;41383;51.418;7.286;2023-02-28T00:25:10;101228.03;;;3.08;59.97
55538;BME280;41383;51.418;7.286;2023-02-28T00:27:37;101217.63;;;3.05;60.60
55538;BME280;41383;51.418;7.286;2023-02-28T00:30:03;101219.66;;;3.03;60.39
55538;BME280;41383;51.418;7.286;2023-02-28T00:32:29;101220.00;;;3.00;60.13
55538;BME280;41383;51.418;7.286;2023-02-28T00:34:55;101220.19;;;2.98;60.44
55538;BME280;41383;51.418;7.286;2023-02-28T00:37:20;101214.59;;;3.00;60.47
55538;BME280;41383;51.418;7.286;2023-02-28T00:39:45;101220.00;;;3.00;59.88
55538;BME280;41383;51.418;7.286;2023-02-28T00:42:11;101209.59;;;2.97;60.26
55538;BME280;41383;51.418;7.286;2023-02-28T00:44:36;101215.69;;;2.90;60.59
55538;BME280;41383;51.418;7.286;2023-02-28T00:47:01;101213.66;;;2.92;60.72
55538;BME280;41383;51.418;7.286;2023-02-28T00:49:27;101213.66;;;2.92;60.35
55538;BME280;41383;51.418;7.286;2023-02-28T00:51:54;101223.88;;;2.97;60.30
55538;BME280;41383;51.418;7.286;2023-02-28T00:54:20;101217.00;;;2.95;60.75
55538;BME280;41383;51.418;7.286;2023-02-28T00:56:45;101222.63;;;2.85;60.44
55538;BME280;41383;51.418;7.286;2023-02-28T00:59:15;101223.34;;;2.78;60.44
55538;BME280;41383;51.418;7.286;2023-02-28T01:01:41;101226.84;;;2.79;61.15
55538;BME280;41383;51.418;7.286;2023-02-28T01:04:07;101229.06;;;2.75;60.96
55538;BME280;41383;51.418;7.286;2023-02-28T01:06:32;101233.25;;;2.78;60.97
55538;BME280;41383;51.418;7.286;2023-02-28T01:08:59;101223.69;;;2.75;60.73
55538;BME280;41383;51.418;7.286;2023-02-28T01:11:24;101220.50;;;2.72;60.82
55538;BME280;41383;51.418;7.286;2023-02-28T01:13:49;101221.81;;;2.76;60.89
55538;BME280;41383;51.418;7.286;2023-02-28T01:16:15;101222.72;;;2.68;61.23
55538;BME280;41383;51.418;7.286;2023-02-28T01:18:40;101224.59;;;2.59;61.43
55538;BME280;41383;51.418;7.286;2023-02-28T01:21:11;101226.00;;;2.47;61.32
55538;BME280;41383;51.418;7.286;2023-02-28T01:23:38;101225.50;;;2.43;61.88
55538;BME280;41383;51.418;7.286;2023-02-28T01:26:18;101232.03;;;2.49;61.69
55538;BME280;41383;51.418;7.286;2023-02-28T01:28:43;101227.69;;;2.48;62.00
55538;BME280;41383;51.418;7.286;2023-02-28T01:31:09;101222.63;;;2.44;61.87
55538;BME280;41383;51.418;7.286;2023-02-28T01:33:36;101222.19;;;2.32;62.35
55538;BME280;41383;51.418;7.286;2023-02-28T01:36:04;101227.75;;;2.31;62.54
55538;BME280;41383;51.418;7.286;2023-02-28T01:38:30;101220.84;;;2.28;62.72
55538;BME280;41383;51.418;7.286;2023-02-28T01:40:55;101224.19;;;2.30;61.70
55538;BME280;41383;51.418;7.286;2023-02-28T01:43:23;101213.63;;;2.29;62.35
55538;BME280;41383;51.418;7.286;2023-02-28T01:45:50;101217.66;;;2.25;62.57
55538;BME280;41383;51.418;7.286;2023-02-28T01:48:15;101210.91;;;2.29;61.83
55538;BME280;41383;51.418;7.286;2023-02-28T01:50:44;101208.91;;;2.22;62.22
55538;BME280;41383;51.418;7.286;2023-02-28T01:53:15;101196.81;;;2.18;62.48
55538;BME280;41383;51.418;7.286;2023-02-28T01:55:45;101203.91;;;2.19;62.45
55538;BME280;41383;51.418;7.286;2023-02-28T01:58:11;101195.13;;;2.26;62.51
55538;BME280;41383;51.418;7.286;2023-02-28T02:00:37;101194.09;;;2.27;62.08
55538;BME280;41383;51.418;7.286;2023-02-28T02:03:09;101203.34;;;2.24;62.35
55538;BME280;41383;51.418;7.286;2023-02-28T02:05:37;101202.22;;;2.18;62.04
55538;BME280;41383;51.418;7.286;2023-02-28T02:08:05;101200.19;;;2.20;62.18
55538;BME280;41383;51.418;7.286;2023-02-28T02:10:44;101193.66;;;2.06;62.17
55538;BME280;41383;51.418;7.286;2023-02-28T02:13:21;101197.22;;;1.98;62.80
55538;BME280;41383;51.418;7.286;2023-02-28T02:16:07;101199.91;;;1.98;63.11
55538;BME280;41383;51.418;7.286;2023-02-28T02:18:48;101196.88;;;2.02;62.72
55538;BME280;41383;51.418;7.286;2023-02-28T02:32:16;101193.72;;;1.90;63.51
55538;BME280;41383;51.418;7.286;2023-02-28T02:35:04;101178.22;;;1.92;62.89
55538;BME280;41383;51.418;7.286;2023-02-28T02:37:42;101185.50;;;1.83;63.23
55538;BME280;41383;51.418;7.286;2023-02-28T02:40:22;101187.84;;;1.86;63.41
55538;BME280;41383;51.418;7.286;2023-02-28T02:43:02;101187.63;;;1.96;63.01
55538;BME280;41383;51.418;7.286;2023-02-28T02:45:55;101187.66;;;1.88;63.06
55538;BME280;41383;51.418;7.286;2023-02-28T02:48:25;101193.22;;;1.78;62.87
55538;BME280;41383;51.418;7.286;2023-02-28T02:50:55;101182.28;;;1.79;63.63
55538;BME280;41383;51.418;7.286;2023-02-28T02:53:27;101184.84;;;1.81;62.80
55538;BME280;41383;51.418;7.286;2023-02-28T02:55:55;101189.69;;;1.77;63.02
55538;BME280;41383;51.418;7.286;2023-02-28T02:58:28;101194.09;;;1.70;63.35
55538;BME280;41383;51.418;7.286;2023-02-28T03:00:58;101188.88;;;1.77;63.79
55538;BME280;41383;51.418;7.286;2023-02-28T03:03:25;101190.22;;;1.81;63.28
55538;BME280;41383;51.418;7.286;2023-02-28T03:05:57;101191.00;;;1.90;63.00
55538;BME280;41383;51.418;7.286;2023-02-28T03:08:22;101196.22;;;1.91;63.29
55538;BME280;41383;51.418;7.286;2023-02-28T03:10:50;101192.22;;;1.87;63.45
55538;BME280;41383;51.418;7.286;2023-02-28T03:21:43;101188.50;;;1.96;63.21
55538;BME280;41383;51.418;7.286;2023-02-28T03:24:21;101191.34;;;1.95;62.90
55538;BME280;41383;51.418;7.286;2023-02-28T03:26:55;101185.97;;;1.95;62.85
55538;BME280;41383;51.418;7.286;2023-02-28T03:29:34;101187.63;;;1.96;62.61
55538;BME280;41383;51.418;7.286;2023-02-28T03:32:06;101184.78;;;1.97;62.42
55538;BME280;41383;51.418;7.286;2023-02-28T03:34:39;101189.16;;;1.98;62.20
55538;BME280;41383;51.418;7.286;2023-02-28T03:37:15;101187.63;;;1.96;61.91
55538;BME280;41383;51.418;7.286;2023-02-28T03:39:58;101184.16;;;1.87;61.68
55538;BME280;41383;51.418;7.286;2023-02-28T03:42:27;101182.16;;;1.72;61.84
55538;BME280;41383;51.418;7.286;2023-02-28T03:44:58;101191.56;;;1.77;62.34
55538;BME280;41383;51.418;7.286;2023-02-28T03:47:39;101186.84;;;1.79;61.86
55538;BME280;41383;51.418;7.286;2023-02-28T03:50:18;101196.28;;;1.66;62.14
55538;BME280;41383;51.418;7.286;2023-02-28T03:52:50;101187.53;;;1.72;61.55
55538;BME280;41383;51.418;7.286;2023-02-28T03:55:17;101191.56;;;1.68;61.70
55538;BME280;41383;51.418;7.286;2023-02-28T03:58:05;101194.94;;;1.54;61.33
55538;BME280;41383;51.418;7.286;2023-02-28T04:00:37;101187.19;;;1.59;61.50
55538;BME280;41383;51.418;7.286;2023-02-28T04:03:04;101190.91;;;1.58;61.50
55538;BME280;41383;51.418;7.286;2023-02-28T04:05:30;101197.47;;;1.55;61.60
55538;BME280;41383;51.418;7.286;2023-02-28T04:08:07;101190.22;;;1.64;61.07
55538;BME280;41383;51.418;7.286;2023-02-28T04:10:32;101194.59;;;1.57;60.70
55538;BME280;41383;51.418;7.286;2023-02-28T04:12:58;101189.25;;;1.48;60.90
55538;BME280;41383;51.418;7.286;2023-02-28T04:15:23;101196.13;;;1.51;61.30
55538;BME280;41383;51.418;7.286;2023-02-28T04:17:49;101187.56;;;1.56;61.33
55538;BME280;41383;51.418;7.286;2023-02-28T04:20:15;101196.59;;;1.55;61.69
55538;BME280;41383;51.418;7.286;2023-02-28T04:22:40;101191.59;;;1.51;62.08
55538;BME280;41383;51.418;7.286;2023-02-28T04:25:06;101199.34;;;1.46;61.72
55538;BME280;41383;51.418;7.286;2023-02-28T04:27:32;101200.16;;;1.47;62.10
55538;BME280;41383;51.418;7.286;2023-02-28T04:29:57;101205.38;;;1.48;62.27
55538;BME280;41383;51.418;7.286;2023-02-28T04:32:22;101204.84;;;1.53;62.11
55538;BME280;41383;51.418;7.286;2023-02-28T04:34:47;101206.88;;;1.51;61.53
55538;BME280;41383;51.418;7.286;2023-02-28T04:37:13;101207.22;;;1.39;61.64
55538;BME280;41383;51.418;7.286;2023-02-28T04:39:38;101206.53;;;1.37;61.75
55538;BME280;41383;51.418;7.286;2023-02-28T04:42:04;101203.50;;;1.40;61.89
55538;BME280;41383;51.418;7.286;2023-02-28T04:44:29;101214.44;;;1.47;61.29
55538;BME280;41383;51.418;7.286;2023-02-28T04:46:54;101202.69;;;1.32;61.26
55538;BME280;41383;51.418;7.286;2023-02-28T04:49:20;101212.75;;;1.30;61.78
55538;BME280;41383;51.418;7.286;2023-02-28T04:51:45;101217.47;;;1.27;61.92
55538;BME280;41383;51.418;7.286;2023-02-28T04:54:10;101214.75;;;1.19;61.96
55538;BME280;41383;51.418;7.286;2023-02-28T04:56:36;101212.06;;;1.02;62.58
55538;BME280;41383;51.418;7.286;2023-02-28T04:59:01;101211.06;;;1.20;62.42
55538;BME280;41383;51.418;7.286;2023-02-28T05:01:28;101210.75;;;1.23;62.01
55538;BME280;41383;51.418;7.286;2023-02-28T05:03:56;101210.41;;;1.26;61.59
55538;BME280;41383;51.418;7.286;2023-02-28T05:06:23;101205.84;;;1.19;62.36
55538;BME280;41383;51.418;7.286;2023-02-28T05:08:49;101214.75;;;1.19;61.82
55538;BME280;41383;51.418;7.286;2023-02-28T05:11:29;101224.16;;;1.15;62.11
55538;BME280;41383;51.418;7.286;2023-02-28T05:13:58;101222.50;;;1.14;61.92
55538;BME280;41383;51.418;7.286;2023-02-28T05:16:23;101217.63;;;1.26;61.78
55538;BME280;41383;51.418;7.286;2023-02-28T05:18:49;101220.47;;;1.24;61.69
55538;BME280;41383;51.418;7.286;2023-02-28T05:21:38;101230.88;;;1.19;61.99
55538;BME280;41383;51.418;7.286;2023-02-28T05:24:07;101232.41;;;1.13;62.12
55538;BME280;41383;51.418;7.286;2023-02-28T05:26:35;101227.00;;;1.05;62.11
55538;BME280;41383;51.418;7.286;2023-02-28T05:29:01;101234.03;;;0.98;62.28
55538;BME280;41383;51.418;7.286;2023-02-28T05:31:27;101231.00;;;0.92;62.54
55538;BME280;41383;51.418;7.286;2023-02-28T05:33:52;101239.53;;;0.88;62.57
55538;BME280;41383;51.418;7.286;2023-02-28T05:36:17;101229.16;;;0.85;62.53
55538;BME280;41383;51.418;7.286;2023-02-28T05:38:48;101234.72;;;0.91;62.34
55538;BME280;41383;51.418;7.286;2023-02-28T05:41:14;101233.22;;;0.97;62.24
55538;BME280;41383;51.418;7.286;2023-02-28T05:43:39;101242.28;;;1.04;62.15
55538;BME280;41383;51.418;7.286;2023-02-28T05:46:09;101244.28;;;1.02;62.07
55538;BME280;41383;51.418;7.286;2023-02-28T05:48:37;101242.91;;;0.90;62.01
55538;BME280;41383;51.418;7.286;2023-02-28T05:51:03;101241.09;;;0.99;62.10
55538;BME280;41383;51.418;7.286;2023-02-28T05:53:29;101243.94;;;0.97;62.34
55538;BME280;41383;51.418;7.286;2023-02-28T05:55:55;101240.91;;;0.92;61.96
55538;BME280;41383;51.418;7.286;2023-02-28T05:58:21;101235.72;;;0.99;61.92
55538;BME280;41383;51.418;7.286;2023-02-28T06:00:47;101248.00;;;1.01;61.90
55538;BME280;41383;51.418;7.286;2023-02-28T06:03:12;101247.31;;;0.99;62.03
55538;BME280;41383;51.418;7.286;2023-02-28T06:05:38;101246.94;;;0.94;62.40
55538;BME280;41383;51.418;7.286;2023-02-28T06:08:03;101249.47;;;0.87;62.48
55538;BME280;41383;51.418;7.286;2023-02-28T06:10:32;101251.97;;;0.80;62.13
55538;BME280;41383;51.418;7.286;2023-02-28T06:12:59;101258.31;;;0.79;62.75
55538;BME280;41383;51.418;7.286;2023-02-28T06:15:25;101256.16;;;0.75;62.57
55538;BME280;41383;51.418;7.286;2023-02-28T06:17:50;101255.63;;;0.71;62.72
55538;BME280;41383;51.418;7.286;2023-02-28T06:20:17;101265.31;;;0.64;62.85
55538;BME280;41383;51.418;7.286;2023-02-28T06:22:42;101264.03;;;0.76;63.03
55538;BME280;41383;51.418;7.286;2023-02-28T06:25:09;101269.75;;;0.73;62.70
55538;BME280;41383;51.418;7.286;2023-02-28T06:27:34;101276.13;;;0.80;62.77
55538;BME280;41383;51.418;7.286;2023-02-28T06:30:00;101268.56;;;0.76;62.72
55538;BME280;41383;51.418;7.286;2023-02-28T06:32:25;101273.22;;;0.65;62.98
55538;BME280;41383;51.418;7.286;2023-02-28T06:34:50;101269.38;;;0.68;62.68
55538;BME280;41383;51.418;7.286;2023-02-28T06:37:17;101271.75;;;0.71;62.83
55538;BME280;41383;51.418;7.286;2023-02-28T06:39:42;101273.41;;;0.72;62.99
55538;BME280;41383;51.418;7.286;2023-02-28T06:42:07;101270.38;;;0.67;63.05
55538;BME280;41383;51.418;7.286;2023-02-28T06:44:33;101275.41;;;0.70;63.05
55538;BME280;41383;51.418;7.286;2023-02-28T06:47:04;101283.31;;;0.72;63.24
55538;BME280;41383;51.418;7.286;2023-02-28T06:49:30;101277.41;;;0.68;63.55
55538;BME280;41383;51.418;7.286;2023-02-28T06:51:56;101282.66;;;0.78;62.98
55538;BME280;41383;51.418;7.286;2023-02-28T06:54:21;101284.16;;;0.72;63.55
55538;BME280;41383;51.418;7.286;2023-02-28T06:56:46;101283.50;;;0.78;63.49
55538;BME280;41383;51.418;7.286;2023-02-28T06:59:12;101286.53;;;0.84;63.72
55538;BME280;41383;51.418;7.286;2023-02-28T07:01:38;101285.72;;;0.83;63.40
55538;BME280;41383;51.418;7.286;2023-02-28T07:04:05;101283.88;;;0.92;63.60
55538;BME280;41383;51.418;7.286;2023-02-28T07:06:31;101288.59;;;0.98;63.64
55538;BME280;41383;51.418;7.286;2023-02-28T07:08:56;101279.22;;;1.02;63.41
55538;BME280;41383;51.418;7.286;2023-02-28T07:11:22;101294.00;;;1.07;63.59
55538;BME280;41383;51.418;7.286;2023-02-28T07:13:50;101289.66;;;1.14;63.83
55538;BME280;41383;51.418;7.286;2023-02-28T07:16:15;101289.81;;;1.12;62.60
55538;BME280;41383;51.418;7.286;2023-02-28T07:18:41;101288.66;;;1.15;62.89
55538;BME280;41383;51.418;7.286;2023-02-28T07:21:09;101290.66;;;1.13;63.41
55538;BME280;41383;51.418;7.286;2023-02-28T07:23:35;101288.66;;;1.15;63.42
55538;BME280;41383;51.418;7.286;2023-02-28T07:26:01;101297.25;;;1.27;62.94
55538;BME280;41383;51.418;7.286;2023-02-28T07:28:26;101295.88;;;1.23;62.91
55538;BME280;41383;51.418;7.286;2023-02-28T07:30:51;101301.94;;;1.25;62.97
55538;BME280;41383;51.418;7.286;2023-02-28T07:33:17;101293.19;;;1.23;63.16
55538;BME280;41383;51.418;7.286;2023-02-28T07:35:42;101295.91;;;1.31;62.83
55538;BME280;41383;51.418;7.286;2023-02-28T07:38:08;101296.59;;;1.33;62.48
55538;BME280;41383;51.418;7.286;2023-02-28T07:40:34;101302.13;;;1.32;62.75
55538;BME280;41383;51.418;7.286;2023-02-28T07:43:00;101296.91;;;1.38;62.49
55538;BME280;41383;51.418;7.286;2023-02-28T07:45:26;101293.22;;;1.39;62.78
55538;BME280;41383;51.418;7.286;2023-02-28T07:47:51;101311.56;;;1.44;62.63
55538;BME280;41383;51.418;7.286;2023-02-28T07:50:17;101301.47;;;1.46;62.81
55538;BME280;41383;51.418;7.286;2023-02-28T07:52:42;101305.53;;;1.50;62.69
55538;BME280;41383;51.418;7.286;2023-02-28T07:55:08;101312.56;;;1.60;62.10
55538;BME280;41383;51.418;7.286;2023-02-28T07:57:34;101314.25;;;1.69;61.94
55538;BME280;41383;51.418;7.286;2023-02-28T08:00:00;101300.13;;;1.75;62.42
55538;BME280;41383;51.418;7.286;2023-02-28T08:02:26;101308.22;;;1.84;61.61
55538;BME280;41383;51.418;7.286;2023-02-28T08:04:51;101306.88;;;1.88;61.79
55538;BME280;41383;51.418;7.286;2023-02-28T08:07:17;101317.63;;;1.96;61.31
55538;BME280;41383;51.418;7.286;2023-02-28T08:09:43;101313.59;;;2.01;61.10
55538;BME280;41383;51.418;7.286;2023-02-28T08:12:10;101306.84;;;2.05;61.04
55538;BME280;41383;51.418;7.286;2023-02-28T08:14:36;101314.44;;;2.09;61.17
55538;BME280;41383;51.418;7.286;2023-02-28T08:17:01;101309.69;;;2.20;60.86
55538;BME280;41383;51.418;7.286;2023-02-28T08:19:27;101305.31;;;2.27;60.88
55538;BME280;41383;51.418;7.286;2023-02-28T08:21:53;101302.81;;;2.26;60.44
55538;BME280;41383;51.418;7.286;2023-02-28T08:24:18;101305.28;;;2.36;60.48
55538;BME280;41383;51.418;7.286;2023-02-28T08:26:43;101307.97;;;2.44;60.06
55538;BME280;41383;51.418;7.286;2023-02-28T08:29:08;101296.34;;;2.43;60.70
55538;BME280;41383;51.418;7.286;2023-02-28T08:31:34;101304.25;;;2.45;59.82
55538;BME280;41383;51.418;7.286;2023-02-28T08:34:04;101301.75;;;2.43;60.14
55538;BME280;41383;51.418;7.286;2023-02-28T08:36:30;101312.69;;;2.42;59.79
55538;BME280;41383;51.418;7.286;2023-02-28T08:38:56;101302.44;;;2.37;60.18
55538;BME280;41383;51.418;7.286;2023-02-28T08:41:21;101301.56;;;2.45;59.40
55538;BME280;41383;51.418;7.286;2023-02-28T08:43:47;101304.06;;;2.47;59.57
55538;BME280;41383;51.418;7.286;2023-02-28T08:46:13;101309.44;;;2.55;58.36
55538;BME280;41383;51.418;7.286;2023-02-28T08:48:39;101310.09;;;2.57;58.51
55538;BME280;41383;51.418;7.286;2023-02-28T08:51:09;101304.41;;;2.52;59.22
55538;BME280;41383;51.418;7.286;2023-02-28T08:53:36;101302.50;;;2.61;58.40
55538;BME280;41383;51.418;7.286;2023-02-28T08:56:11;101300.66;;;2.61;57.69
55538;BME280;41383;51.418;7.286;2023-02-28T08:58:36;101300.34;;;2.64;59.00
55538;BME280;41383;51.418;7.286;2023-02-28T09:01:31;101303.06;;;2.56;58.93
55538;BME280;41383;51.418;7.286;2023-02-28T09:03:57;101304.03;;;2.63;58.51
55538;BME280;41383;51.418;7.286;2023-02-28T09:06:25;101302.00;;;2.65;58.86
55538;BME280;41383;51.418;7.286;2023-02-28T09:08:50;101309.19;;;2.82;58.48
55538;BME280;41383;51.418;7.286;2023-02-28T09:11:16;101300.03;;;2.91;57.72
55538;BME280;41383;51.418;7.286;2023-02-28T09:13:42;101301.91;;;2.90;57.59
55538;BME280;41383;51.418;7.286;2023-02-28T09:16:10;101302.72;;;2.91;57.36
55538;BME280;41383;51.418;7.286;2023-02-28T09:18:37;101293.81;;;2.90;57.41
55538;BME280;41383;51.418;7.286;2023-02-28T09:21:07;101292.94;;;2.66;56.90
55538;BME280;41383;51.418;7.286;2023-02-28T09:23:33;101300.09;;;2.83;57.25
55538;BME280;41383;51.418;7.286;2023-02-28T09:25:59;101300.91;;;2.83;55.93
55538;BME280;41383;51.418;7.286;2023-02-28T09:28:24;101287.47;;;2.75;56.02
55538;BME280;41383;51.418;7.286;2023-02-28T09:30:52;101286.75;;;2.89;55.67
55538;BME280;41383;51.418;7.286;2023-02-28T09:33:19;101293.13;;;2.97;55.51
55538;BME280;41383;51.418;7.286;2023-02-28T09:35:46;101298.06;;;2.85;54.69
55538;BME280;41383;51.418;7.286;2023-02-28T09:38:11;101293.94;;;2.97;54.89
55538;BME280;41383;51.418;7.286;2023-02-28T09:40:43;101291.03;;;3.07;54.89
55538;BME280;41383;51.418;7.286;2023-02-28T09:43:13;101299.25;;;3.14;53.79
55538;BME280;41383;51.418;7.286;2023-02-28T09:45:41;101295.00;;;3.20;53.70
55538;BME280;41383;51.418;7.286;2023-02-28T09:48:23;101299.72;;;3.18;53.28
55538;BME280;41383;51.418;7.286;2023-02-28T09:51:00;101298.34;;;3.22;53.51
55538;BME280;41383;51.418;7.286;2023-02-28T09:53:35;101297.97;;;3.33;53.39
55538;BME280;41383;51.418;7.286;2023-02-28T09:56:24;101298.97;;;3.32;52.39
55538;BME280;41383;51.418;7.286;2023-02-28T09:59:36;101289.84;;;3.10;52.88
55538;BME280;41383;51.418;7.286;2023-02-28T10:04:51;101300.97;;;3.07;52.71
55538;BME280;41383;51.418;7.286;2023-02-28T10:08:00;101306.34;;;3.15;52.46
55538;BME280;41383;51.418;7.286;2023-02-28T10:10:42;101299.44;;;3.12;51.68
55538;BME280;41383;51.418;7.286;2023-02-28T10:13:23;101302.19;;;3.27;51.29
55538;BME280;41383;51.418;7.286;2023-02-28T10:15:53;101302.00;;;3.37;50.62
55538;BME280;41383;51.418;7.286;2023-02-28T10:18:31;101292.88;;;3.38;50.68
55538;BME280;41383;51.418;7.286;2023-02-28T10:21:02;101295.88;;;3.44;50.39
55538;BME280;41383;51.418;7.286;2023-02-28T10:23:34;101288.31;;;3.62;50.31
55538;BME280;41383;51.418;7.286;2023-02-28T10:26:11;101289.97;;;3.87;49.35
55538;BME280;41383;51.418;7.286;2023-02-28T10:28:37;101287.66;;;3.99;49.68
55538;BME280;41383;51.418;7.286;2023-02-28T10:31:03;101288.22;;;4.09;48.71
55538;BME280;41383;51.418;7.286;2023-02-28T10:33:32;101279.28;;;3.94;48.23
55538;BME280;41383;51.418;7.286;2023-02-28T10:35:59;101275.94;;;3.92;48.01
55538;BME280;41383;51.418;7.286;2023-02-28T10:38:31;101269.34;;;3.94;48.26
55538;BME280;41383;51.418;7.286;2023-02-28T10:41:11;101273.88;;;3.94;47.35
55538;BME280;41383;51.418;7.286;2023-02-28T10:43:38;101266.66;;;3.71;46.76
55538;BME280;41383;51.418;7.286;2023-02-28T10:46:14;101263.94;;;3.94;46.43
55538;BME280;41383;51.418;7.286;2023-02-28T10:49:00;101258.56;;;4.25;46.35
55538;BME280;41383;51.418;7.286;2023-02-28T10:51:35;101258.53;;;3.94;45.14
55538;BME280;41383;51.418;7.286;2023-02-28T10:54:02;101254.69;;;3.89;46.08
55538;BME280;41383;51.418;7.286;2023-02-28T10:56:28;101259.75;;;4.22;46.25
55538;BME280;41383;51.418;7.286;2023-02-28T10:59:03;101263.50;;;4.36;45.29
55538;BME280;41383;51.418;7.286;2023-02-28T11:01:46;101256.97;;;4.30;45.12
55538;BME280;41383;51.418;7.286;2023-02-28T11:06:56;101255.25;;;3.99;45.13
55538;BME280;41383;51.418;7.286;2023-02-28T11:11:55;101249.66;;;3.85;45.12
55538;BME280;41383;51.418;7.286;2023-02-28T11:14:50;101252.78;;;4.28;44.89
55538;BME280;41383;51.418;7.286;2023-02-28T11:17:25;101252.84;;;4.50;43.95
55538;BME280;41383;51.418;7.286;2023-02-28T11:19:54;101255.19;;;4.53;44.40
55538;BME280;41383;51.418;7.286;2023-02-28T11:22:24;101263.28;;;4.68;43.77
55538;BME280;41383;51.418;7.286;2023-02-28T11:24:55;101247.69;;;4.85;43.59
55538;BME280;41383;51.418;7.286;2023-02-28T11:29:59;101254.16;;;4.69;43.84
55538;BME280;41383;51.418;7.286;2023-02-28T11:32:26;101247.28;;;4.36;43.21
55538;BME280;41383;51.418;7.286;2023-02-28T11:37:36;101255.16;;;4.83;44.17
55538;BME280;41383;51.418;7.286;2023-02-28T11:40:08;101244.13;;;5.00;44.68
55538;BME280;41383;51.418;7.286;2023-02-28T11:48:31;101243.81;;;5.32;43.20
55538;BME280;41383;51.418;7.286;2023-02-28T11:51:03;101234.72;;;5.40;43.71
55538;BME280;41383;51.418;7.286;2023-02-28T11:56:37;101249.63;;;5.51;42.63
55538;BME280;41383;51.418;7.286;2023-02-28T11:59:27;101229.13;;;5.63;43.23
55538;BME280;41383;51.418;7.286;2023-02-28T12:05:05;101232.47;;;5.65;43.34
55538;BME280;41383;51.418;7.286;2023-02-28T12:07:55;101227.50;;;5.98;43.06
55538;BME280;41383;51.418;7.286;2023-02-28T12:10:27;101227.88;;;5.94;43.62
55538;BME280;41383;51.418;7.286;2023-02-28T12:13:20;101214.69;;;6.13;42.17
55538;BME280;41383;51.418;7.286;2023-02-28T12:21:44;101218.69;;;5.89;42.40
55538;BME280;41383;51.418;7.286;2023-02-28T12:27:02;101199.56;;;5.97;43.02
55538;BME280;41383;51.418;7.286;2023-02-28T12:29:52;101202.19;;;6.12;42.63
55538;BME280;41383;51.418;7.286;2023-02-28T12:32:36;101197.31;;;6.01;42.90
55538;BME280;41383;51.418;7.286;2023-02-28T12:37:36;101198.19;;;6.44;42.55
55538;BME280;41383;51.418;7.286;2023-02-28T12:40:20;101176.75;;;6.56;43.35
55538;BME280;41383;51.418;7.286;2023-02-28T12:42:50;101185.66;;;6.36;42.28
55538;BME280;41383;51.418;7.286;2023-02-28T12:45:20;101166.06;;;6.34;41.57
55538;BME280;41383;51.418;7.286;2023-02-28T12:47:51;101159.81;;;6.40;41.14
55538;BME280;41383;51.418;7.286;2023-02-28T12:50:18;101166.00;;;6.27;42.05
55538;BME280;41383;51.418;7.286;2023-02-28T12:55:31;101158.59;;;6.42;42.43
55538;BME280;41383;51.418;7.286;2023-02-28T12:58:20;101167.34;;;6.45;41.19
55538;BME280;41383;51.418;7.286;2023-02-28T13:03:47;101147.72;;;6.36;41.65
55538;BME280;41383;51.418;7.286;2023-02-28T13:09:09;101140.50;;;6.57;41.37
55538;BME280;41383;51.418;7.286;2023-02-28T13:11:46;101143.22;;;6.63;41.67
55538;BME280;41383;51.418;7.286;2023-02-28T13:16:55;101148.88;;;6.69;41.53
55538;BME280;41383;51.418;7.286;2023-02-28T13:19:23;101141.34;;;6.64;41.77
55538;BME280;41383;51.418;7.286;2023-02-28T13:21:50;101129.47;;;6.72;42.02
55538;BME280;41383;51.418;7.286;2023-02-28T13:29:40;101134.41;;;6.48;42.41
55538;BME280;41383;51.418;7.286;2023-02-28T13:34:36;101140.72;;;6.62;41.85
55538;BME280;41383;51.418;7.286;2023-02-28T13:42:36;101123.66;;;6.75;41.69
55538;BME280;41383;51.418;7.286;2023-02-28T13:47:30;101128.47;;;6.93;41.88
55538;BME280;41383;51.418;7.286;2023-02-28T13:52:52;101126.59;;;6.94;41.94
55538;BME280;41383;51.418;7.286;2023-02-28T13:55:28;101121.16;;;6.94;41.74
55538;BME280;41383;51.418;7.286;2023-02-28T13:58:30;101121.81;;;7.09;41.95
55538;BME280;41383;51.418;7.286;2023-02-28T14:04:23;101117.41;;;6.88;41.71
55538;BME280;41383;51.418;7.286;2023-02-28T14:06:58;101118.84;;;6.84;41.43
55538;BME280;41383;51.418;7.286;2023-02-28T14:09:35;101117.00;;;6.98;41.17
55538;BME280;41383;51.418;7.286;2023-02-28T14:17:56;101106.16;;;6.98;41.66
55538;BME280;41383;51.418;7.286;2023-02-28T14:20:26;101107.84;;;7.06;41.27
55538;BME280;41383;51.418;7.286;2023-02-28T14:23:10;101115.34;;;6.97;41.88
55538;BME280;41383;51.418;7.286;2023-02-28T14:25:54;101113.66;;;6.96;41.88
55538;BME280;41383;51.418;7.286;2023-02-28T14:28:46;101103.03;;;7.01;41.30
55538;BME280;41383;51.418;7.286;2023-02-28T14:31:40;101104.09;;;7.14;41.72
55538;BME280;41383;51.418;7.286;2023-02-28T14:36:38;101101.53;;;6.78;43.06
55538;BME280;41383;51.418;7.286;2023-02-28T14:39:15;101101.38;;;6.93;43.00
55538;BME280;41383;51.418;7.286;2023-02-28T14:41:43;101115.75;;;6.94;42.94
55538;BME280;41383;51.418;7.286;2023-02-28T14:44:20;101112.84;;;6.95;43.12
55538;BME280;41383;51.418;7.286;2023-02-28T14:46:57;101105.75;;;6.87;42.73
55538;BME280;41383;51.418;7.286;2023-02-28T14:49:41;101109.28;;;6.95;42.80
55538;BME280;41383;51.418;7.286;2023-02-28T14:52:13;101105.72;;;7.08;43.46